Weather at Yalta Heliport

Public forecast

Using degrees Celsius for public forecast. Weather courtesy of forecast.io.

Closest aviation weather report (METAR) to Yalta Heliport

Closest report is Anapa Vityazevo Airport, 140.3 nm (259.9 km) ENE.

2024/07/17 14:00 (retrieved 22 minutes ago)

URKA 171400Z 05009MPS CAVOK 38/13 Q1009 R03/010070 NOSIG RMK QFE752/1003

Closest aviation forecast (TAF) to Yalta Heliport

Closest forecast is Anapa Vityazevo Airport, 140.3 nm (259.9 km) ENE.

2024/07/17 12:21 (retrieved 2 hours ago)

TAF TAF URKA 171054Z 1712/1812 05006G12MPS CAVOK TEMPO 1712/1715 09010G16MPS